sensor_id;sensor_type;location;lat;lon;timestamp;P1;durP1;ratioP1;P2;durP2;ratioP2
15307;SDS011;7755;52.208;6.964;2023-03-20T00:00:28;45.40;;;29.03;;
15307;SDS011;7755;52.208;6.964;2023-03-20T00:04:33;44.77;;;29.40;;
15307;SDS011;7755;52.208;6.964;2023-03-20T00:08:37;45.83;;;29.63;;
15307;SDS011;7755;52.208;6.964;2023-03-20T00:12:40;48.23;;;30.43;;
15307;SDS011;7755;52.208;6.964;2023-03-20T00:16:47;47.13;;;28.90;;
15307;SDS011;7755;52.208;6.964;2023-03-20T00:20:51;47.87;;;31.33;;
15307;SDS011;7755;52.208;6.964;2023-03-20T00:24:55;47.30;;;32.87;;
15307;SDS011;7755;52.208;6.964;2023-03-20T00:28:58;50.33;;;31.90;;
15307;SDS011;7755;52.208;6.964;2023-03-20T00:33:02;54.17;;;34.80;;
15307;SDS011;7755;52.208;6.964;2023-03-20T00:37:07;55.37;;;34.97;;
15307;SDS011;7755;52.208;6.964;2023-03-20T00:41:21;52.83;;;32.60;;
15307;SDS011;7755;52.208;6.964;2023-03-20T00:45:27;53.40;;;34.77;;
15307;SDS011;7755;52.208;6.964;2023-03-20T00:49:33;50.97;;;32.80;;
15307;SDS011;7755;52.208;6.964;2023-03-20T00:53:41;47.00;;;31.10;;
15307;SDS011;7755;52.208;6.964;2023-03-20T00:57:45;50.27;;;31.70;;
15307;SDS011;7755;52.208;6.964;2023-03-20T01:01:53;47.23;;;30.47;;
15307;SDS011;7755;52.208;6.964;2023-03-20T01:06:09;45.70;;;29.57;;
15307;SDS011;7755;52.208;6.964;2023-03-20T01:10:14;44.23;;;29.17;;
15307;SDS011;7755;52.208;6.964;2023-03-20T01:14:18;46.23;;;29.80;;
15307;SDS011;7755;52.208;6.964;2023-03-20T01:18:21;39.17;;;27.77;;
15307;SDS011;7755;52.208;6.964;2023-03-20T01:22:30;42.83;;;27.63;;
15307;SDS011;7755;52.208;6.964;2023-03-20T01:26:37;43.37;;;28.40;;
15307;SDS011;7755;52.208;6.964;2023-03-20T01:30:43;44.13;;;26.67;;
15307;SDS011;7755;52.208;6.964;2023-03-20T01:34:49;39.83;;;26.67;;
15307;SDS011;7755;52.208;6.964;2023-03-20T01:38:59;37.60;;;26.03;;
15307;SDS011;7755;52.208;6.964;2023-03-20T01:43:04;39.63;;;24.47;;
15307;SDS011;7755;52.208;6.964;2023-03-20T01:47:14;34.10;;;24.33;;
15307;SDS011;7755;52.208;6.964;2023-03-20T01:51:25;36.67;;;24.23;;
15307;SDS011;7755;52.208;6.964;2023-03-20T01:55:38;34.33;;;21.73;;
15307;SDS011;7755;52.208;6.964;2023-03-20T01:59:44;32.33;;;20.50;;
15307;SDS011;7755;52.208;6.964;2023-03-20T02:03:52;27.43;;;17.67;;
15307;SDS011;7755;52.208;6.964;2023-03-20T02:08:10;26.97;;;18.43;;
15307;SDS011;7755;52.208;6.964;2023-03-20T02:12:22;24.90;;;17.17;;
15307;SDS011;7755;52.208;6.964;2023-03-20T02:16:27;28.83;;;17.70;;
15307;SDS011;7755;52.208;6.964;2023-03-20T02:20:43;25.30;;;17.53;;
15307;SDS011;7755;52.208;6.964;2023-03-20T02:25:15;28.53;;;19.43;;
15307;SDS011;7755;52.208;6.964;2023-03-20T02:29:48;30.27;;;19.57;;
15307;SDS011;7755;52.208;6.964;2023-03-20T02:34:21;24.47;;;16.10;;
15307;SDS011;7755;52.208;6.964;2023-03-20T02:43:19;22.07;;;15.63;;
15307;SDS011;7755;52.208;6.964;2023-03-20T02:47:27;22.43;;;15.83;;
15307;SDS011;7755;52.208;6.964;2023-03-20T02:51:46;22.90;;;14.73;;
15307;SDS011;7755;52.208;6.964;2023-03-20T02:56:01;19.50;;;13.23;;
15307;SDS011;7755;52.208;6.964;2023-03-20T03:00:11;17.03;;;12.37;;
15307;SDS011;7755;52.208;6.964;2023-03-20T03:04:17;16.33;;;12.97;;
15307;SDS011;7755;52.208;6.964;2023-03-20T03:08:26;17.13;;;12.30;;
15307;SDS011;7755;52.208;6.964;2023-03-20T03:12:34;18.73;;;12.73;;
15307;SDS011;7755;52.208;6.964;2023-03-20T03:16:42;17.03;;;13.10;;
15307;SDS011;7755;52.208;6.964;2023-03-20T03:20:49;20.27;;;12.47;;
15307;SDS011;7755;52.208;6.964;2023-03-20T03:24:57;17.47;;;11.43;;
15307;SDS011;7755;52.208;6.964;2023-03-20T03:29:03;18.27;;;12.27;;
15307;SDS011;7755;52.208;6.964;2023-03-20T03:33:18;16.37;;;11.73;;
15307;SDS011;7755;52.208;6.964;2023-03-20T03:37:25;14.63;;;11.07;;
15307;SDS011;7755;52.208;6.964;2023-03-20T03:41:38;15.30;;;11.90;;
15307;SDS011;7755;52.208;6.964;2023-03-20T03:45:48;16.83;;;12.23;;
15307;SDS011;7755;52.208;6.964;2023-03-20T03:49:57;18.50;;;11.90;;
15307;SDS011;7755;52.208;6.964;2023-03-20T03:54:05;18.83;;;12.00;;
15307;SDS011;7755;52.208;6.964;2023-03-20T03:58:12;17.00;;;11.70;;
15307;SDS011;7755;52.208;6.964;2023-03-20T04:02:24;18.70;;;12.10;;
15307;SDS011;7755;52.208;6.964;2023-03-20T04:06:30;18.63;;;12.70;;
15307;SDS011;7755;52.208;6.964;2023-03-20T04:10:35;18.73;;;12.40;;
15307;SDS011;7755;52.208;6.964;2023-03-20T04:14:41;19.67;;;13.47;;
15307;SDS011;7755;52.208;6.964;2023-03-20T04:18:51;23.33;;;15.57;;
15307;SDS011;7755;52.208;6.964;2023-03-20T04:22:56;22.90;;;17.27;;
15307;SDS011;7755;52.208;6.964;2023-03-20T04:27:00;24.70;;;17.30;;
15307;SDS011;7755;52.208;6.964;2023-03-20T04:31:03;27.87;;;17.93;;
15307;SDS011;7755;52.208;6.964;2023-03-20T04:35:40;24.57;;;17.27;;
15307;SDS011;7755;52.208;6.964;2023-03-20T04:39:48;21.13;;;16.03;;
15307;SDS011;7755;52.208;6.964;2023-03-20T04:43:52;24.20;;;16.97;;
15307;SDS011;7755;52.208;6.964;2023-03-20T04:47:57;25.93;;;16.70;;
15307;SDS011;7755;52.208;6.964;2023-03-20T04:52:05;21.83;;;15.43;;
15307;SDS011;7755;52.208;6.964;2023-03-20T04:56:14;23.37;;;15.47;;
15307;SDS011;7755;52.208;6.964;2023-03-20T05:00:20;24.40;;;15.07;;
15307;SDS011;7755;52.208;6.964;2023-03-20T05:04:24;20.77;;;14.77;;
15307;SDS011;7755;52.208;6.964;2023-03-20T05:08:31;20.30;;;14.73;;
15307;SDS011;7755;52.208;6.964;2023-03-20T05:12:34;19.13;;;14.77;;
15307;SDS011;7755;52.208;6.964;2023-03-20T05:16:58;17.80;;;12.73;;
15307;SDS011;7755;52.208;6.964;2023-03-20T05:21:18;18.73;;;12.67;;
15307;SDS011;7755;52.208;6.964;2023-03-20T05:25:52;17.63;;;12.00;;
15307;SDS011;7755;52.208;6.964;2023-03-20T05:30:29;16.37;;;12.00;;
15307;SDS011;7755;52.208;6.964;2023-03-20T05:34:51;16.60;;;11.40;;
15307;SDS011;7755;52.208;6.964;2023-03-20T05:39:17;18.07;;;10.67;;
15307;SDS011;7755;52.208;6.964;2023-03-20T05:43:41;15.57;;;10.97;;
15307;SDS011;7755;52.208;6.964;2023-03-20T05:48:03;14.00;;;10.83;;
15307;SDS011;7755;52.208;6.964;2023-03-20T05:52:20;12.07;;;9.07;;
15307;SDS011;7755;52.208;6.964;2023-03-20T05:56:38;14.57;;;10.33;;
15307;SDS011;7755;52.208;6.964;2023-03-20T06:01:05;14.37;;;10.00;;
15307;SDS011;7755;52.208;6.964;2023-03-20T06:05:27;15.43;;;10.20;;
15307;SDS011;7755;52.208;6.964;2023-03-20T06:09:31;16.77;;;11.77;;
15307;SDS011;7755;52.208;6.964;2023-03-20T06:13:42;19.53;;;11.80;;
15307;SDS011;7755;52.208;6.964;2023-03-20T06:17:49;15.37;;;10.40;;
15307;SDS011;7755;52.208;6.964;2023-03-20T06:21:52;15.00;;;10.13;;
15307;SDS011;7755;52.208;6.964;2023-03-20T06:25:55;14.90;;;9.53;;
15307;SDS011;7755;52.208;6.964;2023-03-20T06:30:00;13.67;;;9.93;;
15307;SDS011;7755;52.208;6.964;2023-03-20T06:34:09;17.13;;;11.60;;
15307;SDS011;7755;52.208;6.964;2023-03-20T06:38:18;16.67;;;10.97;;
15307;SDS011;7755;52.208;6.964;2023-03-20T06:42:22;16.00;;;10.97;;
15307;SDS011;7755;52.208;6.964;2023-03-20T06:46:25;18.70;;;12.17;;
15307;SDS011;7755;52.208;6.964;2023-03-20T06:50:30;18.00;;;12.93;;
15307;SDS011;7755;52.208;6.964;2023-03-20T06:54:33;19.13;;;12.50;;
15307;SDS011;7755;52.208;6.964;2023-03-20T06:58:36;21.80;;;13.10;;
15307;SDS011;7755;52.208;6.964;2023-03-20T07:02:40;17.47;;;13.70;;
15307;SDS011;7755;52.208;6.964;2023-03-20T07:06:49;21.67;;;14.13;;
15307;SDS011;7755;52.208;6.964;2023-03-20T07:10:52;18.10;;;13.43;;
15307;SDS011;7755;52.208;6.964;2023-03-20T07:14:55;20.47;;;14.23;;
15307;SDS011;7755;52.208;6.964;2023-03-20T07:18:59;19.00;;;13.77;;
15307;SDS011;7755;52.208;6.964;2023-03-20T07:23:09;19.47;;;12.47;;
15307;SDS011;7755;52.208;6.964;2023-03-20T07:27:12;20.00;;;13.43;;
15307;SDS011;7755;52.208;6.964;2023-03-20T07:31:17;13.43;;;10.57;;
15307;SDS011;7755;52.208;6.964;2023-03-20T07:35:26;16.90;;;11.80;;
15307;SDS011;7755;52.208;6.964;2023-03-20T07:39:31;15.87;;;11.50;;
15307;SDS011;7755;52.208;6.964;2023-03-20T07:43:54;19.47;;;11.07;;
15307;SDS011;7755;52.208;6.964;2023-03-20T07:48:19;15.30;;;10.90;;
15307;SDS011;7755;52.208;6.964;2023-03-20T07:52:23;16.83;;;11.07;;
15307;SDS011;7755;52.208;6.964;2023-03-20T07:56:28;15.40;;;10.33;;
15307;SDS011;7755;52.208;6.964;2023-03-20T08:00:31;12.13;;;9.77;;
15307;SDS011;7755;52.208;6.964;2023-03-20T08:04:33;12.97;;;9.63;;
15307;SDS011;7755;52.208;6.964;2023-03-20T08:08:36;15.90;;;9.83;;
15307;SDS011;7755;52.208;6.964;2023-03-20T08:12:41;13.70;;;10.07;;
15307;SDS011;7755;52.208;6.964;2023-03-20T08:16:45;13.17;;;9.77;;
15307;SDS011;7755;52.208;6.964;2023-03-20T08:20:54;12.87;;;10.47;;
15307;SDS011;7755;52.208;6.964;2023-03-20T08:24:57;13.10;;;9.57;;
15307;SDS011;7755;52.208;6.964;2023-03-20T08:29:01;12.40;;;9.27;;
15307;SDS011;7755;52.208;6.964;2023-03-20T08:33:04;13.73;;;9.30;;
15307;SDS011;7755;52.208;6.964;2023-03-20T08:37:07;13.90;;;9.67;;
15307;SDS011;7755;52.208;6.964;2023-03-20T08:41:11;10.87;;;8.67;;
15307;SDS011;7755;52.208;6.964;2023-03-20T08:45:15;11.83;;;8.93;;
15307;SDS011;7755;52.208;6.964;2023-03-20T08:49:18;12.73;;;8.53;;
15307;SDS011;7755;52.208;6.964;2023-03-20T08:53:21;11.83;;;9.43;;
15307;SDS011;7755;52.208;6.964;2023-03-20T08:57:23;11.20;;;7.83;;
15307;SDS011;7755;52.208;6.964;2023-03-20T09:01:28;11.83;;;7.93;;
15307;SDS011;7755;52.208;6.964;2023-03-20T09:05:49;10.77;;;8.77;;
15307;SDS011;7755;52.208;6.964;2023-03-20T09:09:52;14.37;;;8.40;;
15307;SDS011;7755;52.208;6.964;2023-03-20T09:13:55;9.83;;;7.77;;
15307;SDS011;7755;52.208;6.964;2023-03-20T09:17:59;10.63;;;7.37;;
15307;SDS011;7755;52.208;6.964;2023-03-20T09:22:04;10.43;;;7.63;;
15307;SDS011;7755;52.208;6.964;2023-03-20T09:26:07;10.60;;;7.70;;
15307;SDS011;7755;52.208;6.964;2023-03-20T09:30:11;12.07;;;7.23;;
15307;SDS011;7755;52.208;6.964;2023-03-20T09:34:16;8.90;;;6.40;;
15307;SDS011;7755;52.208;6.964;2023-03-20T09:38:18;11.13;;;7.13;;
15307;SDS011;7755;52.208;6.964;2023-03-20T09:42:25;9.63;;;6.50;;
15307;SDS011;7755;52.208;6.964;2023-03-20T09:46:42;7.30;;;5.73;;
15307;SDS011;7755;52.208;6.964;2023-03-20T09:51:06;8.60;;;6.20;;
15307;SDS011;7755;52.208;6.964;2023-03-20T09:55:18;6.53;;;5.73;;
15307;SDS011;7755;52.208;6.964;2023-03-20T09:59:25;7.03;;;5.50;;
15307;SDS011;7755;52.208;6.964;2023-03-20T10:03:31;7.40;;;5.70;;
15307;SDS011;7755;52.208;6.964;2023-03-20T10:07:40;8.00;;;6.00;;
15307;SDS011;7755;52.208;6.964;2023-03-20T10:11:52;7.77;;;6.53;;
15307;SDS011;7755;52.208;6.964;2023-03-20T10:16:05;6.17;;;5.57;;
15307;SDS011;7755;52.208;6.964;2023-03-20T10:20:20;8.60;;;5.77;;
15307;SDS011;7755;52.208;6.964;2023-03-20T10:24:30;6.70;;;5.73;;
15307;SDS011;7755;52.208;6.964;2023-03-20T10:28:38;7.37;;;5.67;;
15307;SDS011;7755;52.208;6.964;2023-03-20T10:32:50;8.80;;;5.93;;
15307;SDS011;7755;52.208;6.964;2023-03-20T10:37:02;6.10;;;4.83;;
15307;SDS011;7755;52.208;6.964;2023-03-20T10:41:18;6.63;;;5.00;;
15307;SDS011;7755;52.208;6.964;2023-03-20T10:45:35;5.57;;;5.07;;
15307;SDS011;7755;52.208;6.964;2023-03-20T10:49:44;5.87;;;5.27;;
15307;SDS011;7755;52.208;6.964;2023-03-20T10:53:52;7.30;;;5.70;;
15307;SDS011;7755;52.208;6.964;2023-03-20T10:58:01;7.27;;;5.27;;
15307;SDS011;7755;52.208;6.964;2023-03-20T11:02:12;6.10;;;5.50;;
15307;SDS011;7755;52.208;6.964;2023-03-20T11:06:16;8.17;;;6.20;;
15307;SDS011;7755;52.208;6.964;2023-03-20T11:10:22;12.10;;;7.40;;
15307;SDS011;7755;52.208;6.964;2023-03-20T11:14:32;7.27;;;6.20;;
15307;SDS011;7755;52.208;6.964;2023-03-20T11:18:39;9.60;;;5.30;;
15307;SDS011;7755;52.208;6.964;2023-03-20T11:22:43;8.90;;;4.90;;
15307;SDS011;7755;52.208;6.964;2023-03-20T11:26:48;10.80;;;8.10;;
15307;SDS011;7755;52.208;6.964;2023-03-20T11:30:57;11.07;;;6.07;;
15307;SDS011;7755;52.208;6.964;2023-03-20T11:35:09;6.57;;;5.90;;
15307;SDS011;7755;52.208;6.964;2023-03-20T11:39:21;7.43;;;5.63;;
15307;SDS011;7755;52.208;6.964;2023-03-20T11:43:26;8.87;;;5.60;;
15307;SDS011;7755;52.208;6.964;2023-03-20T11:47:31;7.73;;;5.93;;
15307;SDS011;7755;52.208;6.964;2023-03-20T11:51:36;7.43;;;5.20;;
15307;SDS011;7755;52.208;6.964;2023-03-20T11:55:40;8.63;;;5.13;;
15307;SDS011;7755;52.208;6.964;2023-03-20T11:59:46;6.40;;;5.40;;
15307;SDS011;7755;52.208;6.964;2023-03-20T12:03:51;5.83;;;5.23;;
15307;SDS011;7755;52.208;6.964;2023-03-20T12:08:00;7.80;;;4.80;;
15307;SDS011;7755;52.208;6.964;2023-03-20T12:12:11;6.43;;;5.33;;
15307;SDS011;7755;52.208;6.964;2023-03-20T12:16:20;7.80;;;5.63;;
15307;SDS011;7755;52.208;6.964;2023-03-20T12:20:33;7.40;;;6.20;;
15307;SDS011;7755;52.208;6.964;2023-03-20T12:24:40;7.67;;;5.37;;
15307;SDS011;7755;52.208;6.964;2023-03-20T12:28:49;9.17;;;6.23;;
15307;SDS011;7755;52.208;6.964;2023-03-20T12:32:57;8.67;;;6.30;;
15307;SDS011;7755;52.208;6.964;2023-03-20T12:37:08;7.27;;;6.57;;
15307;SDS011;7755;52.208;6.964;2023-03-20T12:41:14;9.30;;;7.23;;
15307;SDS011;7755;52.208;6.964;2023-03-20T12:45:21;8.83;;;6.70;;
15307;SDS011;7755;52.208;6.964;2023-03-20T12:49:28;11.27;;;7.43;;
15307;SDS011;7755;52.208;6.964;2023-03-20T12:53:43;9.73;;;7.17;;
15307;SDS011;7755;52.208;6.964;2023-03-20T12:57:59;9.20;;;6.67;;
15307;SDS011;7755;52.208;6.964;2023-03-20T13:02:11;9.57;;;6.73;;
15307;SDS011;7755;52.208;6.964;2023-03-20T13:06:36;7.97;;;7.17;;
15307;SDS011;7755;52.208;6.964;2023-03-20T13:10:51;8.30;;;5.80;;
15307;SDS011;7755;52.208;6.964;2023-03-20T13:15:09;7.10;;;6.07;;
15307;SDS011;7755;52.208;6.964;2023-03-20T13:19:24;4.73;;;4.33;;
15307;SDS011;7755;52.208;6.964;2023-03-20T13:23:33;6.13;;;4.60;;
15307;SDS011;7755;52.208;6.964;2023-03-20T13:27:43;4.30;;;3.90;;
15307;SDS011;7755;52.208;6.964;2023-03-20T13:31:52;5.23;;;4.10;;
15307;SDS011;7755;52.208;6.964;2023-03-20T13:36:06;7.83;;;4.37;;
15307;SDS011;7755;52.208;6.964;2023-03-20T13:40:19;6.30;;;4.40;;
15307;SDS011;7755;52.208;6.964;2023-03-20T13:44:26;5.40;;;4.00;;
15307;SDS011;7755;52.208;6.964;2023-03-20T13:48:31;6.20;;;4.33;;
15307;SDS011;7755;52.208;6.964;2023-03-20T13:52:37;5.43;;;4.40;;
15307;SDS011;7755;52.208;6.964;2023-03-20T13:56:47;5.03;;;4.53;;
15307;SDS011;7755;52.208;6.964;2023-03-20T14:00:58;5.57;;;5.00;;
15307;SDS011;7755;52.208;6.964;2023-03-20T14:05:09;7.17;;;4.53;;
15307;SDS011;7755;52.208;6.964;2023-03-20T14:09:23;6.97;;;5.47;;
15307;SDS011;7755;52.208;6.964;2023-03-20T14:13:28;6.30;;;5.70;;
15307;SDS011;7755;52.208;6.964;2023-03-20T14:17:33;6.70;;;5.90;;
15307;SDS011;7755;52.208;6.964;2023-03-20T14:21:36;7.23;;;6.47;;
15307;SDS011;7755;52.208;6.964;2023-03-20T14:25:40;7.07;;;5.70;;
15307;SDS011;7755;52.208;6.964;2023-03-20T14:29:44;6.40;;;5.80;;
15307;SDS011;7755;52.208;6.964;2023-03-20T14:33:52;5.83;;;5.23;;
15307;SDS011;7755;52.208;6.964;2023-03-20T14:38:14;5.43;;;4.93;;
15307;SDS011;7755;52.208;6.964;2023-03-20T14:42:28;6.03;;;5.00;;
15307;SDS011;7755;52.208;6.964;2023-03-20T14:46:41;9.67;;;7.03;;
15307;SDS011;7755;52.208;6.964;2023-03-20T14:50:52;8.87;;;6.97;;
15307;SDS011;7755;52.208;6.964;2023-03-20T14:55:14;6.80;;;6.20;;
15307;SDS011;7755;52.208;6.964;2023-03-20T14:59:30;6.73;;;6.13;;
15307;SDS011;7755;52.208;6.964;2023-03-20T15:03:34;6.03;;;4.87;;
15307;SDS011;7755;52.208;6.964;2023-03-20T15:07:42;7.63;;;5.53;;
15307;SDS011;7755;52.208;6.964;2023-03-20T15:11:45;13.73;;;7.77;;
15307;SDS011;7755;52.208;6.964;2023-03-20T15:15:52;9.67;;;7.50;;
15307;SDS011;7755;52.208;6.964;2023-03-20T15:20:00;6.67;;;5.97;;
15307;SDS011;7755;52.208;6.964;2023-03-20T15:24:06;10.00;;;7.43;;
15307;SDS011;7755;52.208;6.964;2023-03-20T15:28:11;8.40;;;6.00;;
15307;SDS011;7755;52.208;6.964;2023-03-20T15:32:19;5.83;;;5.07;;
15307;SDS011;7755;52.208;6.964;2023-03-20T15:36:24;9.57;;;6.40;;
15307;SDS011;7755;52.208;6.964;2023-03-20T15:40:30;6.70;;;6.00;;
15307;SDS011;7755;52.208;6.964;2023-03-20T15:44:51;9.03;;;6.50;;
15307;SDS011;7755;52.208;6.964;2023-03-20T15:48:55;8.53;;;7.03;;
15307;SDS011;7755;52.208;6.964;2023-03-20T15:53:00;12.57;;;6.67;;
15307;SDS011;7755;52.208;6.964;2023-03-20T15:57:05;8.63;;;7.23;;
15307;SDS011;7755;52.208;6.964;2023-03-20T16:01:08;11.23;;;7.30;;
15307;SDS011;7755;52.208;6.964;2023-03-20T16:05:18;10.67;;;7.47;;
15307;SDS011;7755;52.208;6.964;2023-03-20T16:09:26;8.47;;;7.33;;
15307;SDS011;7755;52.208;6.964;2023-03-20T16:13:32;9.43;;;7.13;;
15307;SDS011;7755;52.208;6.964;2023-03-20T16:17:39;12.30;;;8.63;;
15307;SDS011;7755;52.208;6.964;2023-03-20T16:21:43;12.73;;;10.43;;
15307;SDS011;7755;52.208;6.964;2023-03-20T16:25:52;9.97;;;8.57;;
15307;SDS011;7755;52.208;6.964;2023-03-20T16:30:02;12.30;;;9.27;;
15307;SDS011;7755;52.208;6.964;2023-03-20T16:34:07;12.80;;;10.23;;
15307;SDS011;7755;52.208;6.964;2023-03-20T16:38:21;12.07;;;10.00;;
15307;SDS011;7755;52.208;6.964;2023-03-20T16:42:26;17.87;;;12.33;;
15307;SDS011;7755;52.208;6.964;2023-03-20T16:46:32;12.60;;;10.90;;
15307;SDS011;7755;52.208;6.964;2023-03-20T16:50:35;17.50;;;11.90;;
15307;SDS011;7755;52.208;6.964;2023-03-20T16:54:39;14.97;;;12.20;;
15307;SDS011;7755;52.208;6.964;2023-03-20T16:58:43;16.77;;;12.33;;
15307;SDS011;7755;52.208;6.964;2023-03-20T17:02:49;14.23;;;11.83;;
15307;SDS011;7755;52.208;6.964;2023-03-20T17:06:54;17.83;;;11.43;;
15307;SDS011;7755;52.208;6.964;2023-03-20T17:11:02;13.53;;;11.40;;
15307;SDS011;7755;52.208;6.964;2023-03-20T17:15:13;20.93;;;12.77;;
15307;SDS011;7755;52.208;6.964;2023-03-20T17:19:18;16.13;;;13.20;;
15307;SDS011;7755;52.208;6.964;2023-03-20T17:23:21;14.77;;;11.97;;
15307;SDS011;7755;52.208;6.964;2023-03-20T17:27:24;16.73;;;13.20;;
15307;SDS011;7755;52.208;6.964;2023-03-20T17:31:28;16.27;;;12.23;;
15307;SDS011;7755;52.208;6.964;2023-03-20T17:35:33;14.80;;;12.03;;
15307;SDS011;7755;52.208;6.964;2023-03-20T17:39:36;15.93;;;13.07;;
15307;SDS011;7755;52.208;6.964;2023-03-20T17:43:39;17.67;;;13.00;;
15307;SDS011;7755;52.208;6.964;2023-03-20T17:47:43;17.40;;;13.67;;
15307;SDS011;7755;52.208;6.964;2023-03-20T17:51:47;19.10;;;13.63;;
15307;SDS011;7755;52.208;6.964;2023-03-20T17:55:50;23.47;;;13.70;;
15307;SDS011;7755;52.208;6.964;2023-03-20T17:59:53;14.67;;;13.10;;
15307;SDS011;7755;52.208;6.964;2023-03-20T18:03:58;17.07;;;12.73;;
15307;SDS011;7755;52.208;6.964;2023-03-20T18:08:03;19.27;;;14.40;;
15307;SDS011;7755;52.208;6.964;2023-03-20T18:12:08;19.27;;;14.30;;
15307;SDS011;7755;52.208;6.964;2023-03-20T18:16:14;21.43;;;14.80;;
15307;SDS011;7755;52.208;6.964;2023-03-20T18:20:22;18.63;;;15.73;;
15307;SDS011;7755;52.208;6.964;2023-03-20T18:24:28;22.37;;;16.80;;
15307;SDS011;7755;52.208;6.964;2023-03-20T18:28:31;21.57;;;15.87;;
15307;SDS011;7755;52.208;6.964;2023-03-20T18:32:33;20.27;;;15.07;;
15307;SDS011;7755;52.208;6.964;2023-03-20T18:36:36;16.93;;;13.73;;
15307;SDS011;7755;52.208;6.964;2023-03-20T18:40:40;22.07;;;16.40;;
15307;SDS011;7755;52.208;6.964;2023-03-20T18:44:47;16.73;;;14.90;;
15307;SDS011;7755;52.208;6.964;2023-03-20T18:48:50;23.37;;;16.03;;
15307;SDS011;7755;52.208;6.964;2023-03-20T18:52:55;17.43;;;15.13;;
15307;SDS011;7755;52.208;6.964;2023-03-20T18:57:00;22.33;;;15.93;;
15307;SDS011;7755;52.208;6.964;2023-03-20T19:01:03;28.13;;;18.63;;
15307;SDS011;7755;52.208;6.964;2023-03-20T19:05:06;18.43;;;15.23;;
15307;SDS011;7755;52.208;6.964;2023-03-20T19:09:10;17.77;;;15.80;;
15307;SDS011;7755;52.208;6.964;2023-03-20T19:13:15;20.73;;;14.57;;
15307;SDS011;7755;52.208;6.964;2023-03-20T19:17:19;24.87;;;18.80;;
15307;SDS011;7755;52.208;6.964;2023-03-20T19:21:22;19.63;;;17.53;;
15307;SDS011;7755;52.208;6.964;2023-03-20T19:25:26;17.50;;;14.50;;
15307;SDS011;7755;52.208;6.964;2023-03-20T19:29:31;21.50;;;15.00;;
15307;SDS011;7755;52.208;6.964;2023-03-20T19:33:34;18.30;;;15.20;;
15307;SDS011;7755;52.208;6.964;2023-03-20T19:37:37;24.23;;;16.70;;
15307;SDS011;7755;52.208;6.964;2023-03-20T19:41:39;21.30;;;15.00;;
15307;SDS011;7755;52.208;6.964;2023-03-20T19:45:43;19.13;;;14.40;;
15307;SDS011;7755;52.208;6.964;2023-03-20T19:49:46;19.80;;;13.83;;
15307;SDS011;7755;52.208;6.964;2023-03-20T19:53:49;17.60;;;14.03;;
15307;SDS011;7755;52.208;6.964;2023-03-20T19:57:52;17.37;;;14.50;;
15307;SDS011;7755;52.208;6.964;2023-03-20T20:01:58;17.70;;;15.27;;
15307;SDS011;7755;52.208;6.964;2023-03-20T20:06:01;17.83;;;14.23;;
15307;SDS011;7755;52.208;6.964;2023-03-20T20:10:05;17.30;;;13.47;;
15307;SDS011;7755;52.208;6.964;2023-03-20T20:14:08;14.53;;;12.20;;
15307;SDS011;7755;52.208;6.964;2023-03-20T20:18:16;18.13;;;13.07;;
15307;SDS011;7755;52.208;6.964;2023-03-20T20:22:20;17.40;;;11.73;;
15307;SDS011;7755;52.208;6.964;2023-03-20T20:26:27;17.00;;;13.03;;
15307;SDS011;7755;52.208;6.964;2023-03-20T20:30:35;13.60;;;12.20;;
15307;SDS011;7755;52.208;6.964;2023-03-20T20:34:40;19.70;;;12.67;;
15307;SDS011;7755;52.208;6.964;2023-03-20T20:39:04;22.07;;;15.07;;
15307;SDS011;7755;52.208;6.964;2023-03-20T20:43:07;16.90;;;14.60;;
15307;SDS011;7755;52.208;6.964;2023-03-20T20:47:11;15.60;;;12.87;;
15307;SDS011;7755;52.208;6.964;2023-03-20T20:51:16;15.37;;;12.90;;
15307;SDS011;7755;52.208;6.964;2023-03-20T20:55:20;21.47;;;12.87;;
15307;SDS011;7755;52.208;6.964;2023-03-20T20:59:25;18.13;;;13.13;;
15307;SDS011;7755;52.208;6.964;2023-03-20T21:03:28;19.47;;;12.50;;
15307;SDS011;7755;52.208;6.964;2023-03-20T21:07:32;19.17;;;14.07;;
15307;SDS011;7755;52.208;6.964;2023-03-20T21:11:36;19.57;;;15.43;;
15307;SDS011;7755;52.208;6.964;2023-03-20T21:15:38;17.53;;;13.67;;
15307;SDS011;7755;52.208;6.964;2023-03-20T21:19:42;18.47;;;13.57;;
15307;SDS011;7755;52.208;6.964;2023-03-20T21:23:46;19.77;;;13.90;;
15307;SDS011;7755;52.208;6.964;2023-03-20T21:27:50;17.80;;;13.33;;
15307;SDS011;7755;52.208;6.964;2023-03-20T21:31:52;14.27;;;12.40;;
15307;SDS011;7755;52.208;6.964;2023-03-20T21:35:55;17.47;;;14.13;;
15307;SDS011;7755;52.208;6.964;2023-03-20T21:40:00;20.83;;;14.50;;
15307;SDS011;7755;52.208;6.964;2023-03-20T21:44:03;19.43;;;12.87;;
15307;SDS011;7755;52.208;6.964;2023-03-20T21:48:06;25.30;;;18.20;;
15307;SDS011;7755;52.208;6.964;2023-03-20T21:52:29;19.67;;;16.27;;
15307;SDS011;7755;52.208;6.964;2023-03-20T21:56:53;26.10;;;18.77;;
15307;SDS011;7755;52.208;6.964;2023-03-20T22:01:16;23.47;;;15.60;;
15307;SDS011;7755;52.208;6.964;2023-03-20T22:05:39;24.73;;;16.27;;
15307;SDS011;7755;52.208;6.964;2023-03-20T22:10:02;19.77;;;15.00;;
15307;SDS011;7755;52.208;6.964;2023-03-20T22:14:26;23.87;;;15.83;;
15307;SDS011;7755;52.208;6.964;2023-03-20T22:18:49;27.47;;;17.20;;
15307;SDS011;7755;52.208;6.964;2023-03-20T22:23:12;20.23;;;14.50;;
15307;SDS011;7755;52.208;6.964;2023-03-20T22:27:35;19.17;;;15.13;;
15307;SDS011;7755;52.208;6.964;2023-03-20T22:31:59;19.07;;;15.07;;
15307;SDS011;7755;52.208;6.964;2023-03-20T22:36:22;26.77;;;18.53;;
15307;SDS011;7755;52.208;6.964;2023-03-20T22:40:44;23.70;;;17.03;;
15307;SDS011;7755;52.208;6.964;2023-03-20T22:45:08;23.93;;;17.00;;
15307;SDS011;7755;52.208;6.964;2023-03-20T22:49:13;20.90;;;15.50;;
15307;SDS011;7755;52.208;6.964;2023-03-20T22:53:16;24.47;;;15.53;;
15307;SDS011;7755;52.208;6.964;2023-03-20T22:57:19;24.80;;;16.80;;
15307;SDS011;7755;52.208;6.964;2023-03-20T23:01:34;23.73;;;17.73;;
15307;SDS011;7755;52.208;6.964;2023-03-20T23:05:39;22.67;;;16.20;;
15307;SDS011;7755;52.208;6.964;2023-03-20T23:09:42;19.53;;;15.67;;
15307;SDS011;7755;52.208;6.964;2023-03-20T23:13:45;24.73;;;17.03;;
15307;SDS011;7755;52.208;6.964;2023-03-20T23:17:48;21.37;;;16.43;;
15307;SDS011;7755;52.208;6.964;2023-03-20T23:21:52;19.87;;;16.77;;
15307;SDS011;7755;52.208;6.964;2023-03-20T23:26:02;23.37;;;16.67;;
15307;SDS011;7755;52.208;6.964;2023-03-20T23:30:07;21.10;;;16.73;;
15307;SDS011;7755;52.208;6.964;2023-03-20T23:34:10;24.17;;;17.40;;
15307;SDS011;7755;52.208;6.964;2023-03-20T23:38:17;22.07;;;16.10;;
15307;SDS011;7755;52.208;6.964;2023-03-20T23:42:20;25.03;;;15.10;;
15307;SDS011;7755;52.208;6.964;2023-03-20T23:46:31;22.47;;;15.67;;
15307;SDS011;7755;52.208;6.964;2023-03-20T23:50:33;22.40;;;15.23;;
15307;SDS011;7755;52.208;6.964;2023-03-20T23:54:54;19.53;;;16.40;;
15307;SDS011;7755;52.208;6.964;2023-03-20T23:58:56;21.30;;;16.23;;
